createdAt,value
2022-09-21T00:09:29.343Z,10.10
2022-09-21T00:29:29.312Z,10.00
2022-09-21T00:49:29.274Z,9.84
2022-09-21T01:09:29.247Z,9.10
2022-09-21T01:29:29.223Z,9.31
2022-09-21T01:49:29.200Z,9.15
2022-09-21T02:09:29.184Z,9.14
2022-09-21T02:29:29.165Z,9.28
2022-09-21T02:49:29.161Z,8.60
2022-09-21T03:09:29.127Z,8.70
2022-09-21T03:29:29.168Z,8.94
2022-09-21T03:49:29.110Z,8.50
2022-09-21T04:09:29.088Z,8.04
2022-09-21T04:49:29.069Z,8.21
2022-09-21T05:09:29.025Z,8.12
2022-09-21T05:29:28.998Z,8.11
2022-09-21T05:49:28.988Z,8.31
2022-09-21T06:09:28.994Z,8.75
2022-09-21T06:29:29.055Z,8.95
2022-09-21T06:49:28.932Z,9.33
2022-09-21T07:09:28.917Z,10.14
2022-09-21T07:29:28.895Z,10.73
2022-09-21T07:49:28.871Z,11.24
2022-09-21T08:09:28.863Z,11.70
2022-09-21T08:29:28.858Z,12.11
2022-09-21T08:49:28.819Z,12.40
2022-09-21T09:09:28.792Z,12.63
2022-09-21T09:29:28.753Z,13.00
2022-09-21T09:49:28.732Z,13.58
2022-09-21T10:09:28.720Z,13.53
2022-09-21T10:29:28.699Z,14.15
2022-09-21T10:49:28.664Z,14.30
2022-09-21T11:09:28.648Z,14.61
2022-09-21T11:29:28.656Z,14.62
2022-09-21T11:49:28.602Z,14.70
2022-09-21T12:09:28.569Z,14.69
2022-09-21T12:29:28.574Z,15.31
2022-09-21T12:49:28.627Z,15.09
2022-09-21T13:09:28.527Z,14.95
2022-09-21T13:29:28.465Z,15.32
2022-09-21T13:49:28.437Z,15.07
2022-09-21T14:09:28.419Z,15.06
2022-09-21T14:29:28.411Z,14.98
2022-09-21T14:49:28.363Z,14.70
2022-09-21T15:09:28.342Z,14.67
2022-09-21T15:29:28.306Z,14.50
2022-09-21T15:49:28.295Z,14.29
2022-09-21T16:09:28.268Z,14.14
2022-09-21T16:29:28.271Z,13.95
2022-09-21T16:49:28.211Z,13.76
2022-09-21T17:09:28.191Z,13.37
2022-09-21T17:29:28.158Z,13.12
2022-09-21T17:49:28.128Z,12.91
2022-09-21T18:09:28.104Z,12.66
2022-09-21T18:29:28.099Z,12.48
2022-09-21T18:49:28.061Z,12.20
2022-09-21T19:09:28.046Z,11.98
2022-09-21T19:29:28.029Z,11.61
2022-09-21T19:49:27.989Z,11.47
2022-09-21T20:09:27.966Z,11.14
2022-09-21T20:29:27.953Z,11.01
2022-09-21T20:49:27.920Z,10.95
2022-09-21T21:09:27.914Z,10.56
2022-09-21T21:29:27.890Z,10.38
2022-09-21T21:49:27.887Z,10.38
2022-09-21T22:09:27.864Z,9.83
2022-09-21T22:29:27.832Z,9.95
2022-09-21T22:49:27.814Z,9.85
2022-09-21T23:09:27.785Z,9.56
2022-09-21T23:29:27.830Z,9.32
2022-09-21T23:49:27.734Z,9.15
